ADDS METAR Data

Data at: 0458 UTC 20 Apr 2018

METAR for:KORH (Worcester Muni, MA, US)
Text:KORH 200454Z 28015KT 10SM BKN075 OVC085 00/M03 A2984 RMK AO2 SNB0358E19 SLP113 P0000 T00001028 400440000
Temperature: 0.0°C ( 32°F)
Dewpoint: -2.8°C ( 27°F) [RH = 81%]
Pressure (altimeter):29.84 inches Hg (1010.6 mb) [Sea level pressure: 1011.3 mb]
Winds:from the W (280 degrees) at 17 MPH (15 knots; 7.7 m/s)
Visibility:10 or more sm (16+ km)
Ceiling:7500 feet AGL
Clouds: broken clouds at 7500 feet AGL, overcast cloud deck at 8500 feet AGL